Accueil
METAR-TAF:

METAR-TAF

Aéroports :

Arnhem, Pays-Bas

latitude: 52-04N, longitude: 005-53E, altitude: 48 m

Observation

Le bulletin a été fait il y a 34 minutes, à 06:55 UTC
Vent 5 kt de sud, variant entre sud/sud-est et ouest/sud-ouest
Température 1°C
Humidité 100%
Pression 1023 hPa
Visibilité: 0700 m
brouillard

METAR: EHDL 240655Z AUTO 18005KT 150V240 0700 FG VV000 01/01 Q1023 RED

Heure: 08:29 (07:29 UTC)

Prévision

Le bulletin a été fait il y a 13 heures et 50 minutes, à 17:39 UTC
Prévision valable du 23 à 18 UTC au 24 à 06 UTC
Vent 4 kt de est
Visibilité: 2500 m
Nuages fragmentés à une hauteur de 1000 ft
brume
Temporairement
du 23 à 18 UTC au 23 à 21 UTC
Visibilité: 1500 m
Nuages fragmentés à une hauteur de 500 ft
brume
Evoluant progressivement
du 23 à 20 UTC au 23 à 23 UTC
Visibilité: 0800 m
brouillard, brouillard givrant

TAF: EHDL 231739Z 2318/2406 09004KT 2500 BR BKN010 TEMPO 2318/2321 1500 BR BKN005 BECMG 2320/2323 0800 FG FZFG

Observations et prévisions météorologiques de plus de 4000 aéroports (messages METAR et TAF).

Les stations disponibles sont représentées par des disques jaunes et rouges sur la carte.

Passer la souris dessus pour voir le nom de la station.

Cliquer dessus pour voir les observations et prévisions météorologiques.

Pour changer de carte: cliquez sur les boutons verts avec une croix noire pour zoomer, sur le bouton vert avec un tiret pour effectuer un zoom arrière, ou sur les flèches vertes pour les cartes adjacentes.


METAR-TAF: